Time;durP1;ratioP1;P1;durP2;ratioP2;P2;SDS_P1;SDS_P2;PMS_P1;PMS_P2;Temp;Humidity;BMP_temperature;BMP_pressure;BME280_temperature;BME280_humidity;BME280_pressure;Samples;Min_cycle;Max_cycle;Signal;HPM_P1;HPM_P2
2024/01/04 00:00:23;;;;;;;4.07;0.60;;;;;;;7.83;100.00;98453.34;5050351;28;20425;-73
2024/01/04 00:02:51;;;;;;;1.65;0.57;;;;;;;7.85;100.00;98454.09;5044656;28;20721;-71
2024/01/04 00:05:22;;;;;;;0.88;0.30;;;;;;;7.87;100.00;98461.91;5039314;28;20052;-72
2024/01/04 00:07:51;;;;;;;2.65;0.47;;;;;;;7.72;100.00;98440.03;5045104;28;20112;-72
2024/01/04 00:10:23;;;;;;;2.95;0.70;;;;;;;7.81;100.00;98465.78;5052624;28;20091;-73
2024/01/04 00:12:59;;;;;;;2.22;0.43;;;;;;;7.82;100.00;98461.34;5033738;28;20141;-72
2024/01/04 00:15:28;;;;;;;2.70;0.45;;;;;;;7.76;100.00;98457.31;5031469;28;20055;-71
2024/01/04 00:17:58;;;;;;;3.10;0.40;;;;;;;7.80;100.00;98452.69;5061596;28;20049;-71
2024/01/04 00:20:27;;;;;;;0.75;0.30;;;;;;;7.89;100.00;98457.34;5046316;28;20048;-71
2024/01/04 00:22:56;;;;;;;1.42;0.40;;;;;;;7.97;100.00;98465.59;5038415;28;20136;-71
2024/01/04 00:25:31;;;;;;;1.08;0.40;;;;;;;7.96;100.00;98463.91;5051692;28;20059;-71
2024/01/04 00:28:03;;;;;;;2.28;0.50;;;;;;;7.93;100.00;98458.84;5067460;28;20041;-71
2024/01/04 00:30:31;;;;;;;1.63;0.30;;;;;;;7.91;100.00;98455.47;5067250;28;20047;-71
2024/01/04 00:33:01;;;;;;;2.25;0.40;;;;;;;7.92;100.00;98465.06;5066018;28;20111;-71
2024/01/04 00:35:30;;;;;;;4.72;0.40;;;;;;;7.91;100.00;98477.38;5051807;28;20147;-72
2024/01/04 00:38:01;;;;;;;1.50;0.40;;;;;;;7.90;100.00;98475.69;5056248;28;20037;-71
2024/01/04 00:40:35;;;;;;;5.05;0.60;;;;;;;7.93;100.00;98469.38;5062662;28;20037;-71
2024/01/04 00:43:05;;;;;;;0.90;0.45;;;;;;;7.91;100.00;98473.91;5053693;28;20055;-71
2024/01/04 00:45:33;;;;;;;2.38;0.30;;;;;;;7.93;100.00;98478.13;5061256;28;20040;-71
2024/01/04 00:48:03;;;;;;;2.83;0.40;;;;;;;7.85;100.00;98475.19;5042965;28;20037;-73
2024/01/04 00:50:32;;;;;;;2.42;0.40;;;;;;;7.83;100.00;98463.03;5063055;28;20037;-72
2024/01/04 00:53:03;;;;;;;1.33;0.60;;;;;;;7.81;100.00;98468.41;5058494;28;20045;-71
2024/01/04 00:55:39;;;;;;;1.77;0.63;;;;;;;7.85;100.00;98463.78;5053485;28;20072;-71
2024/01/04 00:58:08;;;;;;;1.55;0.50;;;;;;;7.91;100.00;98466.84;5063295;28;20059;-73
2024/01/04 01:00:36;;;;;;;0.60;0.30;;;;;;;7.92;100.00;98467.69;5062687;28;20048;-71
2024/01/04 01:03:05;;;;;;;2.97;0.50;;;;;;;7.85;100.00;98463.78;5057011;28;20060;-71
2024/01/04 01:05:36;;;;;;;0.82;0.22;;;;;;;7.79;100.00;98457.13;5053677;28;20094;-72
2024/01/04 01:08:05;;;;;;;2.95;0.20;;;;;;;7.74;100.00;98460.06;5060486;28;20083;-71
2024/01/04 01:10:35;;;;;;;2.22;0.35;;;;;;;7.80;100.00;98482.53;5062620;28;20044;-72
2024/01/04 01:13:05;;;;;;;0.43;0.32;;;;;;;7.74;100.00;98481.13;5046775;28;20131;-71
2024/01/04 01:15:33;;;;;;;0.75;0.30;;;;;;;7.78;100.00;98484.41;5043779;28;20089;-72
2024/01/04 01:18:02;;;;;;;1.20;0.47;;;;;;;7.82;100.00;98488.56;5049007;28;20044;-72
2024/01/04 01:20:30;;;;;;;1.08;0.30;;;;;;;7.86;100.00;98492.69;5059064;28;20071;-72
2024/01/04 01:23:01;;;;;;;0.65;0.25;;;;;;;7.80;100.00;98498.34;5064015;28;20114;-71
2024/01/04 01:25:29;;;;;;;0.70;0.30;;;;;;;7.77;100.00;98495.06;5062242;28;20036;-72
2024/01/04 01:28:01;;;;;;;2.22;0.43;;;;;;;7.79;100.00;98499.28;5026313;28;20045;-72
2024/01/04 01:30:33;;;;;;;1.23;0.20;;;;;;;7.81;100.00;98507.94;5065794;28;20040;-72
2024/01/04 01:33:01;;;;;;;0.10;0.10;;;;;;;7.79;100.00;98515.09;5055243;28;20049;-72
2024/01/04 01:35:30;;;;;;;0.52;0.20;;;;;;;7.77;100.00;98516.13;5071842;28;20127;-72
2024/01/04 01:37:59;;;;;;;0.90;0.20;;;;;;;7.75;100.00;98521.50;5053157;28;20044;-71
2024/01/04 01:40:27;;;;;;;1.20;0.30;;;;;;;7.74;100.00;98525.94;5062833;28;20651;-72
2024/01/04 01:42:54;;;;;;;0.88;0.25;;;;;;;7.71;100.00;98522.66;5059994;28;20047;-71
2024/01/04 01:45:24;;;;;;;1.33;0.30;;;;;;;7.70;100.00;98528.88;5046277;28;20051;-72
2024/01/04 01:47:54;;;;;;;0.95;0.38;;;;;;;7.70;100.00;98529.72;5065855;28;20056;-73
2024/01/04 01:50:24;;;;;;;2.03;0.30;;;;;;;7.70;100.00;98536.78;5060360;28;20564;-71
2024/01/04 01:52:52;;;;;;;0.55;0.20;;;;;;;7.67;100.00;98531.72;5055989;28;20494;-71
2024/01/04 01:55:22;;;;;;;1.45;0.30;;;;;;;7.72;100.00;98546.25;5073585;28;20040;-72
2024/01/04 01:57:51;;;;;;;2.03;0.45;;;;;;;7.82;100.00;98567.59;5049032;28;20052;-72
2024/01/04 02:00:20;;;;;;;1.27;0.20;;;;;;;7.81;100.00;98570.34;5045845;28;20040;-73
2024/01/04 02:02:49;;;;;;;1.57;0.20;;;;;;;7.87;100.00;98593.66;5080619;28;20515;-72
2024/01/04 02:05:20;;;;;;;2.13;0.40;;;;;;;7.70;100.00;98574.50;5057527;28;20040;-73
2024/01/04 02:07:50;;;;;;;2.10;0.40;;;;;;;7.90;100.00;98602.19;5050399;28;20048;-70
2024/01/04 02:10:18;;;;;;;0.55;0.30;;;;;;;7.85;100.00;98593.75;5055499;28;20048;-70
2024/01/04 02:12:47;;;;;;;1.25;0.25;;;;;;;7.80;100.00;98585.28;5057509;28;20045;-72
2024/01/04 02:15:16;;;;;;;2.13;0.40;;;;;;;7.82;100.00;98575.50;5041030;28;20043;-73
2024/01/04 02:17:44;;;;;;;3.00;0.38;;;;;;;7.83;100.00;98569.28;5050747;28;20063;-73
2024/01/04 02:20:14;;;;;;;0.75;0.20;;;;;;;7.86;100.00;98579.66;5073491;28;20047;-71
2024/01/04 02:22:45;;;;;;;0.55;0.22;;;;;;;7.82;100.00;98569.38;5066673;28;20072;-72
2024/01/04 02:25:15;;;;;;;1.00;0.40;;;;;;;7.75;100.00;98571.56;5044481;28;20131;-71
2024/01/04 02:27:44;;;;;;;1.25;0.20;;;;;;;7.73;100.00;98578.72;5058361;28;20045;-73
2024/01/04 02:30:12;;;;;;;0.90;0.30;;;;;;;7.72;100.00;98598.09;5064232;28;20630;-72
2024/01/04 02:32:41;;;;;;;0.77;0.30;;;;;;;7.62;100.00;98586.47;5046171;28;20052;-71
2024/01/04 02:35:09;;;;;;;1.45;0.35;;;;;;;7.66;100.00;98599.34;5060499;28;20085;-71
2024/01/04 02:37:42;;;;;;;1.98;0.65;;;;;;;7.66;100.00;98614.31;5059835;28;20051;-71
2024/01/04 02:40:12;;;;;;;1.27;0.30;;;;;;;7.65;100.00;98610.00;5049915;28;20148;-71
2024/01/04 02:42:40;;;;;;;0.20;0.20;;;;;;;7.56;100.00;98602.66;5065262;28;20051;-71
2024/01/04 02:45:10;;;;;;;0.40;0.22;;;;;;;7.65;100.00;98613.47;5056859;28;20059;-71
2024/01/04 02:47:38;;;;;;;1.95;0.30;;;;;;;7.59;100.00;98613.84;5059296;28;20269;-71
2024/01/04 02:50:13;;;;;;;1.38;0.47;;;;;;;7.74;100.00;98627.84;5070877;28;20140;-71
2024/01/04 02:52:43;;;;;;;0.65;0.30;;;;;;;7.74;100.00;98647.13;5044942;28;20072;-71
2024/01/04 02:55:12;;;;;;;0.43;0.20;;;;;;;7.74;100.00;98648.91;5050173;28;20036;-71
2024/01/04 02:57:40;;;;;;;1.48;0.30;;;;;;;7.76;100.00;98644.41;5063443;28;20066;-71
2024/01/04 03:00:09;;;;;;;0.73;0.20;;;;;;;7.62;100.00;98624.19;5057496;28;20052;-71
2024/01/04 03:02:39;;;;;;;1.25;0.30;;;;;;;7.70;100.00;98650.91;5061807;28;20155;-73
2024/01/04 03:05:08;;;;;;;0.35;0.10;;;;;;;7.74;100.00;98659.44;5039486;28;20041;-71
2024/01/04 03:07:37;;;;;;;0.77;0.20;;;;;;;7.79;100.00;98656.53;5058737;28;20041;-71
2024/01/04 03:10:07;;;;;;;2.22;0.25;;;;;;;7.80;100.00;98666.97;5060030;28;20036;-70
2024/01/04 03:12:39;;;;;;;1.33;0.22;;;;;;;7.67;100.00;98647.63;5066999;28;20052;-73
2024/01/04 03:15:09;;;;;;;2.65;0.40;;;;;;;7.76;100.00;98668.09;5067358;28;20135;-71
2024/01/04 03:17:38;;;;;;;0.50;0.10;;;;;;;7.76;100.00;98670.75;5065347;28;20079;-72
2024/01/04 03:20:08;;;;;;;0.10;0.10;;;;;;;7.78;100.00;98668.88;5058891;28;20044;-72
2024/01/04 03:22:36;;;;;;;1.75;0.30;;;;;;;7.79;100.00;98670.56;5056860;28;20049;-71
2024/01/04 03:25:08;;;;;;;1.05;0.30;;;;;;;7.77;100.00;98684.75;5060482;28;20062;-69
2024/01/04 03:27:42;;;;;;;0.85;0.20;;;;;;;7.83;100.00;98695.78;5065482;28;20531;-72
2024/01/04 03:30:11;;;;;;;0.43;0.15;;;;;;;7.86;100.00;98695.59;5065585;28;20063;-71
2024/01/04 03:32:41;;;;;;;2.00;0.30;;;;;;;7.85;100.00;98687.78;5071321;28;20048;-71
2024/01/04 03:35:11;;;;;;;0.52;0.20;;;;;;;7.76;100.00;98683.91;5058366;28;20044;-72
2024/01/04 03:37:40;;;;;;;1.33;0.20;;;;;;;7.81;100.00;98691.53;5060475;28;20044;-72
2024/01/04 03:40:09;;;;;;;1.27;0.30;;;;;;;7.75;100.00;98693.59;5080003;28;20095;-72
2024/01/04 03:42:38;;;;;;;1.70;0.40;;;;;;;7.80;100.00;98695.13;5064952;28;20036;-71
2024/01/04 03:45:08;;;;;;;2.53;0.50;;;;;;;7.80;100.00;98693.34;5058481;28;20065;-71
2024/01/04 03:47:37;;;;;;;1.38;0.20;;;;;;;7.90;100.00;98707.63;5069680;28;20079;-70
2024/01/04 03:50:08;;;;;;;0.65;0.20;;;;;;;7.93;100.00;98702.16;5043168;28;20058;-72
2024/01/04 03:52:38;;;;;;;2.38;0.30;;;;;;;7.97;100.00;98711.56;5064811;28;20040;-71
2024/01/04 03:55:06;;;;;;;0.50;0.20;;;;;;;8.00;100.00;98726.34;5064571;28;20044;-71
2024/01/04 03:57:38;;;;;;;;;;;;;;;8.00;100.00;98724.56;5051432;28;20036;-71
2024/01/04 04:00:10;;;;;;;1.10;0.55;;;;;;;8.03;100.00;98721.69;5052106;28;19984;-70
2024/01/04 04:02:39;;;;;;;1.67;0.20;;;;;;;8.04;100.00;98727.81;5061928;28;20036;-70
2024/01/04 04:05:08;;;;;;;0.25;0.10;;;;;;;7.95;100.00;98721.34;5046813;28;20139;-70
2024/01/04 04:07:37;;;;;;;0.88;0.20;;;;;;;8.02;100.00;98746.41;5063929;28;20504;-73
2024/01/04 04:10:08;;;;;;;2.15;0.40;;;;;;;8.04;100.00;98741.00;5078606;28;20159;-71
2024/01/04 04:12:40;;;;;;;1.60;0.40;;;;;;;8.01;100.00;98739.44;5061256;28;20125;-70
2024/01/04 04:15:09;;;;;;;1.13;0.25;;;;;;;8.12;100.00;98759.84;5067959;28;20047;-70
2024/01/04 04:17:37;;;;;;;0.20;0.20;;;;;;;8.17;100.00;98764.84;5079768;28;20082;-72
2024/01/04 04:20:07;;;;;;;0.90;0.13;;;;;;;8.16;100.00;98765.78;5063658;28;20408;-69
2024/01/04 04:22:35;;;;;;;0.55;0.25;;;;;;;8.14;100.00;98768.50;5073295;28;20044;-71
2024/01/04 04:25:05;;;;;;;0.77;0.17;;;;;;;8.13;100.00;98768.59;5070351;28;20071;-71
2024/01/04 04:27:36;;;;;;;2.30;0.30;;;;;;;8.06;100.00;98761.06;5095028;28;20104;-71
2024/01/04 04:30:06;;;;;;;;;;;;;;;8.09;100.00;98775.84;5073332;28;20048;-71
2024/01/04 04:32:35;;;;;;;0.50;0.20;;;;;;;8.10;100.00;98775.75;5072310;28;20000;-72
2024/01/04 04:35:04;;;;;;;2.17;0.20;;;;;;;8.14;100.00;98786.13;5075684;28;20108;-71
2024/01/04 04:37:32;;;;;;;0.73;0.10;;;;;;;8.17;100.00;98784.13;5075770;28;20112;-71
2024/01/04 04:40:00;;;;;;;2.05;0.28;;;;;;;8.15;100.00;98775.47;5075162;28;20052;-71
2024/01/04 04:42:28;;;;;;;0.20;0.10;;;;;;;8.16;100.00;98773.69;5061238;28;20341;-71
2024/01/04 04:45:03;;;;;;;0.28;0.10;;;;;;;8.21;100.00;98800.59;5074873;28;20045;-71
2024/01/04 04:47:35;;;;;;;2.50;0.25;;;;;;;8.01;100.00;98792.16;5058586;28;20576;-71
2024/01/04 04:50:04;;;;;;;1.55;0.10;;;;;;;8.06;100.00;98797.97;5061371;28;20501;-71
2024/01/04 04:52:32;;;;;;;0.15;0.15;;;;;;;8.02;100.00;98803.56;5071265;28;20351;-71
2024/01/04 04:55:00;;;;;;;0.13;0.13;;;;;;;8.04;100.00;98812.19;5061304;28;20051;-71
2024/01/04 04:57:33;;;;;;;0.40;0.15;;;;;;;8.02;100.00;98817.56;5076944;28;20416;-70
2024/01/04 05:00:06;;;;;;;3.22;0.20;;;;;;;8.00;100.00;98815.97;5062717;28;20044;-70
2024/01/04 05:02:35;;;;;;;0.52;0.10;;;;;;;8.03;100.00;98829.78;5079088;28;20078;-71
2024/01/04 05:05:04;;;;;;;1.10;0.30;;;;;;;8.06;100.00;98826.13;5044630;28;20068;-71
2024/01/04 05:07:33;;;;;;;0.55;0.28;;;;;;;8.07;100.00;98830.44;5049398;28;20032;-71
2024/01/04 05:10:02;;;;;;;1.23;0.25;;;;;;;8.07;100.00;98841.84;5076274;28;20139;-71
2024/01/04 05:12:31;;;;;;;0.30;0.10;;;;;;;8.05;100.00;98837.59;5065481;28;20100;-71
2024/01/04 05:15:00;;;;;;;0.10;0.10;;;;;;;8.03;100.00;98850.88;5066022;28;20131;-71
2024/01/04 05:17:29;;;;;;;0.65;0.32;;;;;;;8.02;100.00;98854.47;5053585;28;21038;-72
2024/01/04 05:19:58;;;;;;;1.52;0.40;;;;;;;8.04;100.00;98852.56;5062006;28;20048;-71
2024/01/04 05:22:26;;;;;;;0.88;0.20;;;;;;;8.06;100.00;98853.31;5075713;28;20044;-71
2024/01/04 05:24:54;;;;;;;0.90;0.30;;;;;;;8.04;100.00;98857.84;5062022;28;20074;-71
2024/01/04 05:27:22;;;;;;;0.60;0.20;;;;;;;8.08;100.00;98869.06;5072179;28;20049;-72
2024/01/04 05:29:51;;;;;;;1.35;0.30;;;;;;;8.10;100.00;98867.19;5065434;28;20055;-71
2024/01/04 05:32:19;;;;;;;1.15;0.20;;;;;;;8.06;100.00;98869.16;5044457;28;20051;-71
2024/01/04 05:34:49;;;;;;;0.95;0.28;;;;;;;7.99;100.00;98870.47;5071154;28;20508;-71
2024/01/04 05:37:20;;;;;;;0.60;0.20;;;;;;;8.06;100.00;98869.16;5054074;28;20052;-71
2024/01/04 05:39:48;;;;;;;3.17;0.40;;;;;;;8.14;100.00;98895.06;5066849;28;20810;-71
2024/01/04 05:42:17;;;;;;;0.93;0.20;;;;;;;8.13;100.00;98901.28;5077395;28;20044;-71
2024/01/04 05:44:45;;;;;;;1.08;0.30;;;;;;;8.12;100.00;98898.72;5054905;28;20043;-71
2024/01/04 05:47:14;;;;;;;0.63;0.20;;;;;;;8.13;100.00;98908.34;5071652;28;20037;-72
2024/01/04 05:49:42;;;;;;;1.10;0.22;;;;;;;8.09;100.00;98908.50;5052019;28;20094;-71
2024/01/04 05:52:10;;;;;;;1.75;0.30;;;;;;;8.12;100.00;98914.53;5063740;28;20048;-71
2024/01/04 05:54:40;;;;;;;0.50;0.20;;;;;;;8.14;100.00;98912.66;5069121;28;20056;-72
2024/01/04 05:57:09;;;;;;;0.55;0.20;;;;;;;8.20;100.00;98917.56;5075540;28;20105;-71
2024/01/04 05:59:38;;;;;;;0.30;0.20;;;;;;;8.17;100.00;98929.16;5062101;28;20093;-72
2024/01/04 06:02:06;;;;;;;1.23;0.20;;;;;;;8.10;100.00;98926.03;5063949;28;20051;-72
2024/01/04 06:04:34;;;;;;;0.30;0.20;;;;;;;8.12;100.00;98935.63;5056669;28;20056;-71
2024/01/04 06:07:05;;;;;;;0.80;0.35;;;;;;;8.10;100.00;98941.84;5045122;28;20039;-70
2024/01/04 06:09:34;;;;;;;0.90;0.30;;;;;;;8.09;100.00;98934.88;5057962;28;20070;-72
2024/01/04 06:12:05;;;;;;;0.37;0.30;;;;;;;8.13;100.00;98946.09;5072876;28;20044;-72
2024/01/04 06:14:33;;;;;;;1.63;0.30;;;;;;;8.12;100.00;98948.81;5050374;28;20146;-72
2024/01/04 06:17:03;;;;;;;1.05;0.15;;;;;;;8.10;100.00;98962.94;5055325;28;20092;-71
2024/01/04 06:19:32;;;;;;;0.10;0.10;;;;;;;8.10;100.00;98957.66;5074963;28;20041;-71
2024/01/04 06:22:00;;;;;;;0.30;0.20;;;;;;;8.15;100.00;98956.56;5064144;28;20067;-71
2024/01/04 06:24:30;;;;;;;0.20;0.20;;;;;;;8.00;100.00;98940.72;5060804;28;20555;-70
2024/01/04 06:27:00;;;;;;;0.88;0.20;;;;;;;8.13;100.00;98968.97;5051608;28;20064;-70
2024/01/04 06:29:31;;;;;;;0.30;0.20;;;;;;;8.12;100.00;98970.75;5065461;28;20466;-73
2024/01/04 06:31:59;;;;;;;0.82;0.28;;;;;;;8.12;100.00;98969.91;5062173;28;20052;-72
2024/01/04 06:34:27;;;;;;;0.73;0.30;;;;;;;8.14;100.00;98976.78;5073045;28;20040;-70
2024/01/04 06:36:55;;;;;;;1.48;0.40;;;;;;;8.12;100.00;98968.13;5050411;28;20056;-70
2024/01/04 06:39:26;;;;;;;0.70;0.30;;;;;;;8.19;100.00;98984.41;5074984;28;20064;-70
2024/01/04 06:41:54;;;;;;;0.80;0.20;;;;;;;8.15;100.00;98982.91;5061527;28;20048;-71
2024/01/04 06:44:23;;;;;;;1.20;0.30;;;;;;;8.15;100.00;98991.69;5048945;28;20048;-72
2024/01/04 06:47:06;;;;;;;1.30;0.73;;;;;;;8.10;100.00;98986.66;5048843;28;20045;-71
2024/01/04 06:49:36;;;;;;;1.55;0.40;;;;;;;8.06;100.00;99006.22;5061523;28;20109;-71
2024/01/04 06:52:06;;;;;;;1.90;0.40;;;;;;;8.01;100.00;99010.94;5058752;28;20132;-71
2024/01/04 06:54:34;;;;;;;2.20;0.40;;;;;;;7.98;100.00;99012.91;5062132;28;20041;-71
2024/01/04 06:57:06;;;;;;;0.73;0.30;;;;;;;7.90;100.00;99023.88;5045520;28;20091;-70
2024/01/04 06:59:35;;;;;;;0.60;0.28;;;;;;;7.91;100.00;99040.53;5064864;28;20159;-70
2024/01/04 07:02:04;;;;;;;0.75;0.22;;;;;;;7.85;100.00;99041.78;5062772;28;20123;-72
2024/01/04 07:04:36;;;;;;;0.73;0.20;;;;;;;7.78;100.00;99035.13;5062158;28;20077;-71
2024/01/04 07:07:05;;;;;;;0.75;0.40;;;;;;;7.77;100.00;99040.50;5065784;28;20046;-71
2024/01/04 07:09:36;;;;;;;1.25;0.20;;;;;;;7.73;100.00;99032.75;5047633;28;20063;-72
2024/01/04 07:12:06;;;;;;;1.80;0.98;;;;;;;7.79;100.00;99036.84;5060782;28;20086;-71
2024/01/04 07:14:38;;;;;;;1.23;0.40;;;;;;;7.85;100.00;99047.03;5048917;28;20049;-72
2024/01/04 07:17:07;;;;;;;2.20;0.38;;;;;;;7.90;100.00;99060.78;5052199;28;20123;-71
2024/01/04 07:19:38;;;;;;;1.73;0.40;;;;;;;7.99;100.00;99059.41;5073636;28;20515;-71
2024/01/04 07:22:06;;;;;;;1.77;0.50;;;;;;;7.97;100.00;99069.19;5066906;28;20047;-71
2024/01/04 07:24:37;;;;;;;2.10;0.55;;;;;;;8.02;100.00;99062.75;5071342;28;20060;-70
2024/01/04 07:27:06;;;;;;;2.42;0.47;;;;;;;8.03;100.00;99053.00;5059408;28;20051;-70
2024/01/04 07:29:35;;;;;;;1.50;0.50;;;;;;;8.16;100.00;99069.84;5069186;28;20062;-71
2024/01/04 07:32:05;;;;;;;7.32;0.90;;;;;;;8.16;100.00;99061.09;5062890;28;20080;-72
2024/01/04 07:34:34;;;;;;;1.23;0.40;;;;;;;8.15;100.00;99067.28;5061043;28;20566;-69
2024/01/04 07:37:07;;;;;;;1.92;0.38;;;;;;;8.20;100.00;99068.69;5046021;28;20122;-72
2024/01/04 07:39:37;;;;;;;2.10;0.40;;;;;;;8.16;100.00;99066.34;5064749;28;20049;-70
2024/01/04 07:42:06;;;;;;;2.20;0.40;;;;;;;8.12;100.00;99070.09;5069176;28;20394;-70
2024/01/04 07:44:36;;;;;;;0.60;0.50;;;;;;;8.12;100.00;99073.59;5061180;28;20048;-71
2024/01/04 07:47:10;;;;;;;2.80;0.47;;;;;;;8.12;100.00;99084.13;5064507;28;20596;-71
2024/01/04 07:49:40;;;;;;;;;;;;;;;8.12;100.00;99081.50;5081716;28;20049;-71
2024/01/04 07:52:09;;;;;;;1.52;0.30;;;;;;;8.16;100.00;99088.31;5088111;28;20368;-72
2024/01/04 07:54:40;;;;;;;2.05;0.30;;;;;;;8.14;100.00;99094.59;5077963;28;20048;-70
2024/01/04 07:57:18;;;;;;;1.85;0.40;;;;;;;8.15;100.00;99098.94;5086705;28;20115;-70
2024/01/04 07:59:46;;;;;;;0.80;0.30;;;;;;;8.19;100.00;99101.28;5084145;28;20066;-71
2024/01/04 08:02:17;;;;;;;1.40;0.47;;;;;;;8.18;100.00;99106.69;5060309;28;20040;-72
2024/01/04 08:04:45;;;;;;;;;;;;;;;8.18;100.00;99106.69;5066104;28;20058;-71
2024/01/04 08:07:14;;;;;;;0.65;0.30;;;;;;;8.22;100.00;99103.75;5056968;28;19935;-70
2024/01/04 08:09:42;;;;;;;1.87;0.40;;;;;;;8.25;100.00;99118.56;5062010;28;20052;-70
2024/01/04 08:12:12;;;;;;;3.15;0.40;;;;;;;8.32;100.00;99117.31;5061296;28;20037;-70
2024/01/04 08:14:42;;;;;;;1.90;0.40;;;;;;;8.30;100.00;99132.34;5063649;28;20072;-71
2024/01/04 08:17:13;;;;;;;2.63;0.43;;;;;;;8.30;100.00;99127.06;5045002;28;20417;-70
2024/01/04 08:19:41;;;;;;;4.35;0.43;;;;;;;8.23;100.00;99123.91;5062617;28;20045;-71
2024/01/04 08:22:10;;;;;;;1.42;0.30;;;;;;;8.14;100.00;99126.25;5050030;28;20487;-70
2024/01/04 08:24:42;;;;;;;1.90;0.60;;;;;;;8.12;100.00;99133.38;5060097;28;20044;-70
2024/01/04 08:27:10;;;;;;;1.30;0.50;;;;;;;8.15;100.00;99143.75;5065729;28;20040;-70
2024/01/04 08:29:39;;;;;;;1.02;0.30;;;;;;;8.19;100.00;99138.19;5063294;28;20059;-70
2024/01/04 08:32:08;;;;;;;1.98;0.30;;;;;;;8.11;100.00;99127.25;5062366;28;20047;-71
2024/01/04 08:34:37;;;;;;;3.25;0.45;;;;;;;8.24;100.00;99143.22;5066609;28;20047;-72
2024/01/04 08:37:07;;;;;;;1.83;0.40;;;;;;;8.23;100.00;99144.16;5062319;28;20544;-70
2024/01/04 08:39:35;;;;;;;1.30;0.52;;;;;;;8.21;100.00;99146.03;5051580;28;20082;-70
2024/01/04 08:42:06;;;;;;;5.13;0.98;;;;;;;8.25;100.00;99148.41;5062062;28;20040;-72
2024/01/04 08:44:34;;;;;;;;;;;;;;;8.35;100.00;99151.38;5072661;28;20047;-72
2024/01/04 08:47:02;;;;;;;0.82;0.52;;;;;;;8.34;100.00;99161.09;5066438;28;19934;-71
2024/01/04 08:49:30;;;;;;;1.52;0.40;;;;;;;8.27;100.00;99159.72;5046512;28;20429;-70
2024/01/04 08:51:58;;;;;;;1.42;0.50;;;;;;;8.27;100.00;99169.44;5069829;28;20071;-70
2024/01/04 08:54:27;;;;;;;1.15;0.50;;;;;;;8.17;100.00;99155.94;5060409;28;20044;-71
2024/01/04 08:56:57;;;;;;;2.03;0.45;;;;;;;8.23;100.00;99167.88;5046893;28;20051;-72
2024/01/04 08:59:27;;;;;;;2.35;0.30;;;;;;;8.35;100.00;99164.56;5075646;28;20562;-72
2024/01/04 09:01:55;;;;;;;2.97;0.75;;;;;;;8.31;100.00;99168.31;5074434;28;20044;-71
2024/01/04 09:04:23;;;;;;;1.23;0.30;;;;;;;8.36;100.00;99179.47;5072889;28;20066;-71
2024/01/04 09:06:52;;;;;;;0.68;0.17;;;;;;;8.35;100.00;99183.03;5071591;28;20040;-70
2024/01/04 09:09:20;;;;;;;0.60;0.25;;;;;;;8.41;100.00;99185.34;5071618;28;20056;-71
2024/01/04 09:11:49;;;;;;;0.80;0.32;;;;;;;8.36;100.00;99185.59;5072529;28;20501;-71
2024/01/04 09:14:17;;;;;;;1.15;0.20;;;;;;;8.29;100.00;99196.56;5065125;28;20189;-71
2024/01/04 09:16:48;;;;;;;0.57;0.25;;;;;;;8.29;100.00;99193.94;5058228;28;20572;-71
2024/01/04 09:19:18;;;;;;;1.25;0.30;;;;;;;8.32;100.00;99191.16;5069170;28;20068;-70
2024/01/04 09:21:50;;;;;;;1.00;0.20;;;;;;;8.33;100.00;99198.13;5043750;28;20128;-71
2024/01/04 09:24:20;;;;;;;0.43;0.20;;;;;;;8.31;100.00;99208.72;5070904;28;20059;-70
2024/01/04 09:26:48;;;;;;;0.68;0.20;;;;;;;8.35;100.00;99209.41;5067159;28;20128;-71
2024/01/04 09:29:17;;;;;;;1.25;0.38;;;;;;;8.46;100.00;99225.50;5037704;28;20135;-70
2024/01/04 09:31:47;;;;;;;5.50;2.03;;;;;;;8.45;100.00;99223.81;5066447;28;20043;-71
2024/01/04 09:34:15;;;;;;;1.95;0.47;;;;;;;8.37;100.00;99233.94;5054743;28;20572;-70
2024/01/04 09:36:43;;;;;;;0.32;0.20;;;;;;;8.38;100.00;99230.34;5046650;28;20048;-70
2024/01/04 09:39:14;;;;;;;1.60;0.35;;;;;;;8.36;100.00;99238.34;5068456;28;20094;-70
2024/01/04 09:41:45;;;;;;;1.30;0.28;;;;;;;8.32;100.00;99243.91;5055909;28;20489;-71
2024/01/04 09:44:15;;;;;;;1.50;0.32;;;;;;;8.31;100.00;99244.81;5061347;28;20127;-70
2024/01/04 09:46:45;;;;;;;1.45;0.30;;;;;;;8.21;100.00;99230.41;5055984;28;20051;-70
2024/01/04 09:49:18;;;;;;;1.25;0.30;;;;;;;8.30;100.00;99251.03;5047242;28;20670;-70
2024/01/04 09:51:51;;;;;;;0.73;0.40;;;;;;;8.22;100.00;99259.34;5058074;28;20033;-70
2024/01/04 09:54:21;;;;;;;2.38;0.40;;;;;;;8.22;100.00;99261.97;5072245;28;20509;-70
2024/01/04 09:56:53;;;;;;;0.38;0.28;;;;;;;8.17;100.00;99271.94;5063014;28;20044;-70
2024/01/04 09:59:21;;;;;;;0.40;0.20;;;;;;;8.13;100.00;99266.91;5048572;28;20504;-70
2024/01/04 10:01:50;;;;;;;2.65;0.30;;;;;;;8.14;100.00;99269.47;5065610;28;20049;-70
2024/01/04 10:04:21;;;;;;;0.73;0.40;;;;;;;8.13;100.00;99272.19;5077145;28;20504;-70
2024/01/04 10:06:55;;;;;;;1.58;0.52;;;;;;;8.12;100.00;99270.50;5076248;28;20048;-69
2024/01/04 10:09:27;;;;;;;1.48;0.55;;;;;;;8.15;100.00;99275.59;5067242;28;20078;-70
2024/01/04 10:12:05;;;;;;;1.90;0.65;;;;;;;8.13;100.00;99273.03;5071132;28;20547;-70
2024/01/04 10:14:33;;;;;;;0.73;0.50;;;;;;;8.19;100.00;99277.13;5065914;28;20044;-70
2024/01/04 10:17:02;;;;;;;0.50;0.30;;;;;;;8.32;100.00;99267.66;5065753;28;20074;-70
2024/01/04 10:19:33;;;;;;;2.33;0.30;;;;;;;8.56;100.00;99278.59;5079692;28;20354;-70
2024/01/04 10:22:03;;;;;;;0.45;0.28;;;;;;;8.64;100.00;99279.88;5066199;28;20068;-71
2024/01/04 10:24:37;;;;;;;0.50;0.40;;;;;;;8.61;100.00;99281.84;5051416;28;20341;-71
2024/01/04 10:27:08;;;;;;;1.13;0.30;;;;;;;8.44;100.00;99286.28;5066415;28;20219;-71
2024/01/04 10:29:40;;;;;;;1.45;0.35;;;;;;;8.38;100.00;99270.78;5070186;28;20044;-70
2024/01/04 10:32:14;;;;;;;2.08;0.35;;;;;;;8.37;100.00;99276.13;5063934;28;20574;-70
2024/01/04 10:34:44;;;;;;;1.17;0.40;;;;;;;8.36;100.00;99283.19;5066178;28;20036;-70
2024/01/04 10:37:16;;;;;;;1.20;0.40;;;;;;;8.38;100.00;99286.59;5064931;28;20044;-71
2024/01/04 10:40:01;;;;;;;0.75;0.35;;;;;;;8.42;100.00;99282.00;5085761;28;20054;-70
2024/01/04 10:42:32;;;;;;;1.02;0.40;;;;;;;8.50;100.00;99284.25;5051362;28;20601;-70
2024/01/04 10:45:04;;;;;;;0.35;0.25;;;;;;;8.49;100.00;99286.03;5066524;28;20062;-69
2024/01/04 10:47:35;;;;;;;1.38;0.75;;;;;;;8.48;100.00;99289.59;5077235;28;20415;-65
2024/01/04 10:50:11;;;;;;;1.05;0.30;;;;;;;8.56;100.00;99297.91;5038464;28;20048;-67
2024/01/04 10:52:43;;;;;;;1.45;0.20;;;;;;;8.48;100.00;99286.97;5047585;28;20097;-67
2024/01/04 10:55:12;;;;;;;0.45;0.30;;;;;;;8.44;100.00;99309.16;5072174;28;20040;-68
2024/01/04 10:57:42;;;;;;;0.28;0.20;;;;;;;8.44;100.00;99317.09;5059849;28;20056;-67
2024/01/04 11:00:13;;;;;;;0.77;0.20;;;;;;;8.33;100.00;99311.56;5035046;28;20063;-68
2024/01/04 11:02:43;;;;;;;0.73;0.10;;;;;;;8.28;100.00;99316.19;5069146;28;20040;-66
2024/01/04 11:05:13;;;;;;;1.30;0.30;;;;;;;8.23;100.00;99316.44;5067162;28;20057;-68
2024/01/04 11:07:41;;;;;;;0.35;0.28;;;;;;;8.30;100.00;99320.44;5070343;28;20078;-69
2024/01/04 11:10:14;;;;;;;1.38;0.35;;;;;;;8.27;100.00;99315.34;5054249;28;20385;-67
2024/01/04 11:12:43;;;;;;;1.17;0.30;;;;;;;8.24;100.00;99318.13;5084044;28;20028;-68
2024/01/04 11:15:12;;;;;;;1.75;0.20;;;;;;;8.23;100.00;99320.84;5059660;28;20071;-67
2024/01/04 11:17:58;;;;;;;2.90;0.55;;;;;;;8.27;100.00;99312.69;5079391;28;20052;-71
2024/01/04 11:20:47;;;;;;;3.35;1.52;;;;;;;8.30;100.00;99320.44;5061365;28;20047;-69
2024/01/04 11:23:31;;;;;;;4.18;0.70;;;;;;;8.36;100.00;99317.50;5071046;28;20044;-69
2024/01/04 11:26:19;;;;;;;3.03;0.80;;;;;;;8.44;100.00;99311.81;5078755;28;20044;-68
2024/01/04 11:28:50;;;;;;;1.95;0.70;;;;;;;8.48;100.00;99312.50;5069324;28;20059;-69
2024/01/04 11:31:19;;;;;;;2.67;0.60;;;;;;;8.46;100.00;99307.28;5066159;28;20128;-69
2024/01/04 11:33:50;;;;;;;4.00;0.63;;;;;;;8.48;100.00;99304.56;5055056;28;20443;-70
2024/01/04 11:36:24;;;;;;;2.78;0.50;;;;;;;8.47;100.00;99309.00;5073493;28;20052;-71
2024/01/04 11:38:57;;;;;;;2.45;0.63;;;;;;;8.54;100.00;99301.56;5068270;28;20055;-68
2024/01/04 11:41:32;;;;;;;3.15;0.60;;;;;;;8.53;100.00;99298.09;5057318;28;20075;-69
2024/01/04 11:43:59;;;;;;;4.22;1.45;;;;;;;8.53;100.00;99303.38;5059405;28;20077;-69
2024/01/04 11:46:27;;;;;;;3.08;1.02;;;;;;;8.49;100.00;99304.50;5063355;28;20036;-70